Time;durP1;ratioP1;P1;durP2;ratioP2;P2;SDS_P1;SDS_P2;PMS_P1;PMS_P2;Temp;Humidity;BMP_temperature;BMP_pressure;BME280_temperature;BME280_humidity;BME280_pressure;Samples;Min_cycle;Max_cycle;Signal;HPM_P1;HPM_P2
2023/06/13 00:02:04;;;;;;;24.27;14.48;;;;;;;;;;4940693;29;20051;-84
2023/06/13 00:04:51;;;;;;;24.77;15.25;;;;;;;;;;4955078;29;20043;-85
2023/06/13 00:07:37;;;;;;;27.30;15.40;;;;;;;;;;4940513;29;20047;-85
2023/06/13 00:10:22;;;;;;;27.30;15.18;;;;;;;;;;4940685;28;20043;-83
2023/06/13 00:13:08;;;;;;;22.73;15.00;;;;;;;;;;4957760;29;20051;-82
2023/06/13 00:15:56;;;;;;;27.35;14.73;;;;;;;;;;4959363;29;20051;-85
2023/06/13 00:18:43;;;;;;;22.83;14.55;;;;;;;;;;4951008;28;20055;-85
2023/06/13 00:21:28;;;;;;;24.17;14.65;;;;;;;;;;4959210;29;20477;-82
2023/06/13 00:24:14;;;;;;;22.58;13.65;;;;;;;;;;4958861;29;20050;-82
2023/06/13 00:26:59;;;;;;;23.67;14.98;;;;;;;;;;4950332;28;20397;-83
2023/06/13 00:29:45;;;;;;;22.67;13.82;;;;;;;;;;4958681;29;20051;-82
2023/06/13 00:32:30;;;;;;;22.88;13.05;;;;;;;;;;4958544;29;20390;-82
2023/06/13 00:35:16;;;;;;;18.85;12.95;;;;;;;;;;4958202;29;20401;-84
2023/06/13 00:38:02;;;;;;;25.25;13.73;;;;;;;;;;4950697;28;20498;-82
2023/06/13 00:40:48;;;;;;;21.15;13.70;;;;;;;;;;4958353;29;20051;-81
2023/06/13 00:43:34;;;;;;;20.60;13.05;;;;;;;;;;4957997;29;20433;-84
2023/06/13 00:46:29;;;;;;;22.10;13.75;;;;;;;;;;4941797;29;20494;-82
2023/06/13 00:49:15;;;;;;;27.73;14.23;;;;;;;;;;4949560;28;20043;-84
2023/06/13 00:52:05;;;;;;;21.67;13.55;;;;;;;;;;4950251;28;20409;-85
2023/06/13 00:54:51;;;;;;;20.83;14.05;;;;;;;;;;4944205;29;20043;-81
2023/06/13 00:57:38;;;;;;;24.52;13.55;;;;;;;;;;4950458;28;20389;-82
2023/06/13 01:00:26;;;;;;;25.25;13.57;;;;;;;;;;4944029;29;20059;-84
2023/06/13 01:03:16;;;;;;;24.15;14.30;;;;;;;;;;4950118;28;20050;-84
2023/06/13 01:06:03;;;;;;;22.23;14.20;;;;;;;;;;4937048;28;20035;-84
2023/06/13 01:08:48;;;;;;;20.48;13.50;;;;;;;;;;4958396;29;20043;-84
2023/06/13 01:11:49;;;;;;;21.60;13.68;;;;;;;;;;4950042;28;20051;-83
2023/06/13 01:14:48;;;;;;;20.95;13.65;;;;;;;;;;4958289;29;20043;-81
2023/06/13 01:17:41;;;;;;;22.70;14.32;;;;;;;;;;4950021;28;20047;-87
2023/06/13 01:20:28;;;;;;;23.00;14.13;;;;;;;;;;4958045;29;20051;-82
2023/06/13 01:23:34;;;;;;;22.77;14.38;;;;;;;;;;4943487;29;20059;-83
2023/06/13 01:26:38;;;;;;;20.45;13.07;;;;;;;;;;4949816;28;20043;-82
2023/06/13 01:29:23;;;;;;;26.20;13.27;;;;;;;;;;4943048;29;20413;-85
2023/06/13 01:32:10;;;;;;;21.00;14.35;;;;;;;;;;4957790;29;20043;-84
2023/06/13 01:34:57;;;;;;;20.88;14.70;;;;;;;;;;4957716;29;20039;-82
2023/06/13 01:37:43;;;;;;;24.05;13.77;;;;;;;;;;4949452;28;20398;-81
2023/06/13 01:40:31;;;;;;;24.70;13.75;;;;;;;;;;4949290;28;20409;-84
2023/06/13 01:43:17;;;;;;;21.88;13.93;;;;;;;;;;4957344;29;20046;-81
2023/06/13 01:46:15;;;;;;;25.35;12.82;;;;;;;;;;4949764;28;20478;-82
2023/06/13 01:49:30;;;;;;;23.42;12.70;;;;;;;;;;4956801;29;20039;-82
2023/06/13 01:52:26;;;;;;;21.50;13.38;;;;;;;;;;4948962;28;20047;-82
2023/06/13 01:55:20;;;;;;;23.25;12.73;;;;;;;;;;4949109;28;20043;-82
2023/06/13 01:58:12;;;;;;;20.40;12.57;;;;;;;;;;4949456;28;20040;-82
2023/06/13 02:01:03;;;;;;;21.67;11.73;;;;;;;;;;4942937;29;20047;-82
2023/06/13 02:03:48;;;;;;;23.75;12.73;;;;;;;;;;4942903;29;20039;-82
2023/06/13 02:06:33;;;;;;;21.92;11.70;;;;;;;;;;4949159;28;20043;-82
2023/06/13 02:09:19;;;;;;;18.55;11.88;;;;;;;;;;4949153;28;20047;-84
2023/06/13 02:12:06;;;;;;;15.77;11.02;;;;;;;;;;4948847;28;20051;-85
2023/06/13 02:14:53;;;;;;;19.67;11.32;;;;;;;;;;4949067;28;20047;-84
2023/06/13 02:17:39;;;;;;;21.02;11.10;;;;;;;;;;4948711;28;20048;-82
2023/06/13 02:20:24;;;;;;;22.05;11.05;;;;;;;;;;4957009;29;20055;-82
2023/06/13 02:23:10;;;;;;;14.70;10.52;;;;;;;;;;4948641;28;20047;-84
2023/06/13 02:25:55;;;;;;;16.73;10.15;;;;;;;;;;4942486;29;20043;-83
2023/06/13 02:28:41;;;;;;;14.80;9.80;;;;;;;;;;4948547;28;20043;-82
2023/06/13 02:31:26;;;;;;;13.02;9.02;;;;;;;;;;4949089;28;20043;-81
2023/06/13 02:34:15;;;;;;;17.40;9.10;;;;;;;;;;4934449;28;20043;-84
2023/06/13 02:37:01;;;;;;;18.50;9.13;;;;;;;;;;4948400;28;20043;-82
2023/06/13 02:39:46;;;;;;;13.68;9.05;;;;;;;;;;4941785;29;20494;-82
2023/06/13 02:42:33;;;;;;;13.77;9.23;;;;;;;;;;4942151;29;20051;-85
2023/06/13 02:45:19;;;;;;;14.13;8.75;;;;;;;;;;4948477;28;20055;-83
2023/06/13 02:48:05;;;;;;;12.95;8.20;;;;;;;;;;4944084;29;20409;-85
2023/06/13 02:50:50;;;;;;;12.88;8.27;;;;;;;;;;4956311;29;20043;-83
2023/06/13 02:53:35;;;;;;;9.85;7.93;;;;;;;;;;4948123;28;20047;-85
2023/06/13 02:56:20;;;;;;;9.70;7.78;;;;;;;;;;4934603;28;20046;-84
2023/06/13 02:59:06;;;;;;;12.40;8.57;;;;;;;;;;4935129;28;20055;-83
2023/06/13 03:01:52;;;;;;;13.88;9.07;;;;;;;;;;4947218;28;20039;-83
2023/06/13 03:04:38;;;;;;;15.85;9.30;;;;;;;;;;4948176;28;20051;-83
2023/06/13 03:07:23;;;;;;;19.88;9.63;;;;;;;;;;4947880;28;20051;-85
2023/06/13 03:10:11;;;;;;;63.28;41.15;;;;;;;;;;4947874;28;20043;-85
2023/06/13 03:12:59;;;;;;;452.65;240.63;;;;;;;;;;4947622;28;20047;-82
2023/06/13 03:15:48;;;;;;;390.55;203.52;;;;;;;;;;4947836;28;20051;-86
2023/06/13 03:18:35;;;;;;;179.85;103.05;;;;;;;;;;4948097;28;20047;-83
2023/06/13 03:21:22;;;;;;;614.30;424.58;;;;;;;;;;4947839;28;20043;-85
2023/06/13 03:24:07;;;;;;;277.83;165.63;;;;;;;;;;4947958;28;20039;-85
2023/06/13 03:26:54;;;;;;;98.10;57.33;;;;;;;;;;4947889;28;20043;-85
2023/06/13 03:29:41;;;;;;;39.28;27.42;;;;;;;;;;4946861;28;20047;-84
2023/06/13 03:32:27;;;;;;;40.88;32.92;;;;;;;;;;4947481;28;20047;-83
2023/06/13 03:35:13;;;;;;;19.85;15.07;;;;;;;;;;4947157;28;20043;-84
2023/06/13 03:37:59;;;;;;;18.63;13.88;;;;;;;;;;4947193;28;20401;-84
2023/06/13 03:40:47;;;;;;;24.42;17.30;;;;;;;;;;4947176;28;20043;-86
2023/06/13 03:43:32;;;;;;;18.80;15.15;;;;;;;;;;4947364;28;20050;-83
2023/06/13 03:46:21;;;;;;;21.42;15.77;;;;;;;;;;4949558;28;20405;-84
2023/06/13 03:49:08;;;;;;;23.58;15.10;;;;;;;;;;4945280;29;20398;-84
2023/06/13 03:51:55;;;;;;;19.08;15.18;;;;;;;;;;4951250;28;20047;-85
2023/06/13 03:54:40;;;;;;;17.45;15.25;;;;;;;;;;4951513;28;20493;-84
2023/06/13 03:57:26;;;;;;;24.92;14.80;;;;;;;;;;4959246;29;20505;-85
2023/06/13 04:00:12;;;;;;;19.52;15.65;;;;;;;;;;4937976;28;20406;-84
2023/06/13 04:03:02;;;;;;;21.02;14.93;;;;;;;;;;4958810;29;20047;-84
2023/06/13 04:05:47;;;;;;;19.92;15.10;;;;;;;;;;4936756;28;20047;-84
2023/06/13 04:08:32;;;;;;;18.23;15.00;;;;;;;;;;4950961;28;20043;-85
2023/06/13 04:11:18;;;;;;;18.75;14.35;;;;;;;;;;4950991;28;20485;-84
2023/06/13 04:14:03;;;;;;;17.88;13.80;;;;;;;;;;4950625;28;20047;-85
2023/06/13 04:16:49;;;;;;;17.35;13.55;;;;;;;;;;4958944;29;20043;-83
2023/06/13 04:19:34;;;;;;;19.63;12.27;;;;;;;;;;4937513;28;20071;-83
2023/06/13 04:22:20;;;;;;;16.42;11.43;;;;;;;;;;4951096;28;20039;-83
2023/06/13 04:25:06;;;;;;;15.95;11.23;;;;;;;;;;4944405;29;20051;-86
2023/06/13 04:27:53;;;;;;;24.98;12.02;;;;;;;;;;4950238;28;20043;-82
2023/06/13 04:30:40;;;;;;;17.40;12.07;;;;;;;;;;4950601;28;20039;-82
2023/06/13 04:33:26;;;;;;;14.38;11.30;;;;;;;;;;4950944;28;20474;-82
2023/06/13 04:36:12;;;;;;;11.10;9.80;;;;;;;;;;4958901;29;20051;-83
2023/06/13 04:38:57;;;;;;;14.52;10.45;;;;;;;;;;4958186;29;20047;-84
2023/06/13 04:41:43;;;;;;;13.73;9.68;;;;;;;;;;4958089;29;20039;-84
2023/06/13 04:44:28;;;;;;;13.23;10.43;;;;;;;;;;4958479;29;20393;-83
2023/06/13 04:47:14;;;;;;;17.67;10.75;;;;;;;;;;4958276;29;20043;-83
2023/06/13 04:50:00;;;;;;;15.75;11.43;;;;;;;;;;4950528;28;20047;-82
2023/06/13 04:52:45;;;;;;;18.05;11.32;;;;;;;;;;4957586;29;20051;-84
2023/06/13 04:55:32;;;;;;;16.05;12.95;;;;;;;;;;4958492;29;20047;-82
2023/06/13 04:58:18;;;;;;;16.15;12.60;;;;;;;;;;4957477;28;20039;-84
2023/06/13 05:01:03;;;;;;;15.85;13.18;;;;;;;;;;4950276;28;20039;-82
2023/06/13 05:03:51;;;;;;;22.08;13.75;;;;;;;;;;4958257;29;20481;-83
2023/06/13 05:06:37;;;;;;;19.98;14.48;;;;;;;;;;4943862;29;20051;-83
2023/06/13 05:09:23;;;;;;;21.10;14.30;;;;;;;;;;4958166;29;20040;-84
2023/06/13 05:12:10;;;;;;;19.88;14.43;;;;;;;;;;4958205;29;20051;-82
2023/06/13 05:14:56;;;;;;;20.13;14.10;;;;;;;;;;4957528;29;20059;-84
2023/06/13 05:17:41;;;;;;;18.05;14.18;;;;;;;;;;4943005;29;20389;-82
2023/06/13 05:20:27;;;;;;;19.77;14.75;;;;;;;;;;4943364;29;20051;-83
2023/06/13 05:23:13;;;;;;;18.05;14.15;;;;;;;;;;4958100;29;20046;-82
2023/06/13 05:25:58;;;;;;;24.83;15.70;;;;;;;;;;4943438;29;20047;-84
2023/06/13 05:28:44;;;;;;;18.00;13.88;;;;;;;;;;4949629;28;20414;-82
2023/06/13 05:31:29;;;;;;;18.05;14.30;;;;;;;;;;4943525;29;20047;-84
2023/06/13 05:34:14;;;;;;;21.25;15.60;;;;;;;;;;4955930;29;20501;-82
2023/06/13 05:37:00;;;;;;;20.20;15.20;;;;;;;;;;4956082;29;20047;-83
2023/06/13 05:39:45;;;;;;;16.27;13.80;;;;;;;;;;4949664;28;20505;-82
2023/06/13 05:42:31;;;;;;;25.15;14.15;;;;;;;;;;4957682;29;20481;-83
2023/06/13 05:45:16;;;;;;;21.15;14.88;;;;;;;;;;4941846;29;20047;-84
2023/06/13 05:48:01;;;;;;;16.70;13.35;;;;;;;;;;4956872;29;20047;-83
2023/06/13 05:50:46;;;;;;;23.33;13.35;;;;;;;;;;4957134;29;20051;-82
2023/06/13 05:53:32;;;;;;;15.73;13.25;;;;;;;;;;4957064;29;20051;-83
2023/06/13 05:56:18;;;;;;;17.88;12.88;;;;;;;;;;4957272;29;20039;-82
2023/06/13 05:59:03;;;;;;;16.15;14.07;;;;;;;;;;4956737;29;20051;-82
2023/06/13 06:01:49;;;;;;;16.08;13.32;;;;;;;;;;4957210;29;20043;-80
2023/06/13 06:04:34;;;;;;;24.10;13.68;;;;;;;;;;4948953;28;20485;-80
2023/06/13 06:07:20;;;;;;;17.48;13.10;;;;;;;;;;4956510;29;20055;-80
2023/06/13 06:10:06;;;;;;;14.15;11.68;;;;;;;;;;4954626;28;20051;-81
2023/06/13 06:12:51;;;;;;;17.38;11.95;;;;;;;;;;4954712;29;20062;-82
2023/06/13 06:15:36;;;;;;;17.38;13.20;;;;;;;;;;4954605;29;20071;-82
2023/06/13 06:18:22;;;;;;;19.38;13.20;;;;;;;;;;4955462;29;20047;-82
2023/06/13 06:21:09;;;;;;;17.73;14.43;;;;;;;;;;4956263;29;20051;-82
2023/06/13 06:23:54;;;;;;;17.77;13.95;;;;;;;;;;4955123;29;20078;-82
2023/06/13 06:26:40;;;;;;;20.70;14.73;;;;;;;;;;4956232;29;20047;-82
2023/06/13 06:29:26;;;;;;;14.88;13.27;;;;;;;;;;4956507;29;20488;-81
2023/06/13 06:32:11;;;;;;;18.65;14.95;;;;;;;;;;4956440;29;20043;-82
2023/06/13 06:34:57;;;;;;;20.15;14.07;;;;;;;;;;4956037;29;20051;-81
2023/06/13 06:37:43;;;;;;;19.75;14.68;;;;;;;;;;4948414;28;20051;-81
2023/06/13 06:40:28;;;;;;;19.42;14.38;;;;;;;;;;4948333;28;20043;-81
2023/06/13 06:43:14;;;;;;;21.98;14.98;;;;;;;;;;4956392;29;20051;-82
2023/06/13 06:46:00;;;;;;;22.50;14.38;;;;;;;;;;4948246;28;20047;-81
2023/06/13 06:48:46;;;;;;;17.08;14.43;;;;;;;;;;4956056;29;20413;-81
2023/06/13 06:51:31;;;;;;;16.00;13.57;;;;;;;;;;4956348;29;20039;-83
2023/06/13 06:54:25;;;;;;;19.60;13.65;;;;;;;;;;4955806;29;20409;-83
2023/06/13 06:57:34;;;;;;;17.40;13.48;;;;;;;;;;4943470;29;20055;-83
2023/06/13 07:00:25;;;;;;;18.77;14.95;;;;;;;;;;4941698;29;20051;-82
2023/06/13 07:03:10;;;;;;;15.68;12.50;;;;;;;;;;4941669;29;20043;-82
2023/06/13 07:05:56;;;;;;;17.13;12.27;;;;;;;;;;4955719;29;20043;-83
2023/06/13 07:12:05;;;;;;;14.82;12.75;;;;;;;;;;4947753;28;20043;-83
2023/06/13 07:15:00;;;;;;;18.60;13.30;;;;;;;;;;4947844;28;20043;-83
2023/06/13 07:36:44;;;;;;;16.20;11.75;;;;;;;;;;4961831;28;20043;-83
2023/06/13 07:39:30;;;;;;;18.50;11.98;;;;;;;;;;4935017;28;20047;-77
2023/06/13 07:42:16;;;;;;;16.73;9.55;;;;;;;;;;4955445;29;20055;-76
2023/06/13 07:45:01;;;;;;;13.32;10.43;;;;;;;;;;4956066;29;20051;-79
2023/06/13 07:47:47;;;;;;;12.35;10.55;;;;;;;;;;4955836;29;20051;-78
2023/06/13 07:50:34;;;;;;;12.32;11.02;;;;;;;;;;4958850;29;20044;-80
2023/06/13 07:53:21;;;;;;;16.33;11.15;;;;;;;;;;4956876;29;20039;-77
2023/06/13 07:56:31;;;;;;;24.17;12.85;;;;;;;;;;4943320;29;20043;-78
2023/06/13 07:59:18;;;;;;;12.05;10.73;;;;;;;;;;4946689;29;20089;-80
2023/06/13 08:02:07;;;;;;;18.42;11.20;;;;;;;;;;4958756;29;20051;-78
2023/06/13 08:04:52;;;;;;;17.63;11.25;;;;;;;;;;4957981;29;20047;-82
2023/06/13 08:07:38;;;;;;;14.52;10.40;;;;;;;;;;4956207;29;20055;-79
2023/06/13 08:10:29;;;;;;;15.73;10.10;;;;;;;;;;4955518;29;20047;-78
2023/06/13 08:13:29;;;;;;;20.25;11.32;;;;;;;;;;4955927;29;20047;-78
2023/06/13 08:16:30;;;;;;;13.27;9.77;;;;;;;;;;4947400;29;20046;-77
2023/06/13 08:19:51;;;;;;;16.17;9.70;;;;;;;;;;4961210;29;20055;-78
2023/06/13 08:22:51;;;;;;;11.55;8.25;;;;;;;;;;4954903;29;20047;-77
2023/06/13 08:25:41;;;;;;;15.65;9.38;;;;;;;;;;4941572;29;20055;-79
2023/06/13 08:28:26;;;;;;;16.00;9.85;;;;;;;;;;4955333;29;20048;-78
2023/06/13 08:31:13;;;;;;;17.17;10.25;;;;;;;;;;4955955;28;20055;-78
2023/06/13 08:33:59;;;;;;;12.77;9.13;;;;;;;;;;4959047;29;20397;-79
2023/06/13 08:36:45;;;;;;;14.48;9.63;;;;;;;;;;4958663;29;20047;-79
2023/06/13 08:39:30;;;;;;;13.60;9.38;;;;;;;;;;4960122;29;20394;-78
2023/06/13 08:42:16;;;;;;;14.00;9.73;;;;;;;;;;4960806;29;20059;-78
2023/06/13 08:45:01;;;;;;;15.68;10.48;;;;;;;;;;4960080;29;20054;-78
2023/06/13 08:47:48;;;;;;;14.63;9.07;;;;;;;;;;4958230;29;20051;-78
2023/06/13 08:50:33;;;;;;;18.20;9.18;;;;;;;;;;4950982;28;20043;-79
2023/06/13 08:53:21;;;;;;;14.23;9.88;;;;;;;;;;4960920;29;20039;-78
2023/06/13 08:56:07;;;;;;;12.68;9.90;;;;;;;;;;4952001;28;20398;-79
2023/06/13 08:59:00;;;;;;;20.83;8.55;;;;;;;;;;4961585;29;20047;-80
2023/06/13 09:01:47;;;;;;;19.25;8.45;;;;;;;;;;4959316;29;20055;-79
2023/06/13 09:04:35;;;;;;;17.15;8.77;;;;;;;;;;4958466;29;20055;-80
2023/06/13 09:07:21;;;;;;;15.32;8.40;;;;;;;;;;4958472;29;20052;-78
2023/06/13 09:10:11;;;;;;;14.27;8.02;;;;;;;;;;4959050;29;20047;-78
2023/06/13 09:12:57;;;;;;;15.50;8.63;;;;;;;;;;4961595;29;20051;-76
2023/06/13 09:15:44;;;;;;;11.65;7.88;;;;;;;;;;4957499;29;20051;-76
2023/06/13 09:18:36;;;;;;;13.43;7.53;;;;;;;;;;4949630;28;20051;-75
2023/06/13 09:21:22;;;;;;;10.63;7.70;;;;;;;;;;4943783;29;20047;-77
2023/06/13 09:24:09;;;;;;;10.48;7.10;;;;;;;;;;4958421;29;20052;-77
2023/06/13 09:26:54;;;;;;;11.57;7.43;;;;;;;;;;4957829;29;20039;-77
2023/06/13 09:29:39;;;;;;;13.38;7.43;;;;;;;;;;4957918;29;20044;-77
2023/06/13 09:32:25;;;;;;;12.18;7.30;;;;;;;;;;4958386;29;20047;-80
2023/06/13 09:35:11;;;;;;;12.60;6.57;;;;;;;;;;4957419;29;20043;-79
2023/06/13 09:37:56;;;;;;;12.57;7.07;;;;;;;;;;4957864;29;20051;-80
2023/06/13 09:40:46;;;;;;;14.10;6.80;;;;;;;;;;4957427;29;20043;-79
2023/06/13 09:43:31;;;;;;;14.23;8.05;;;;;;;;;;4958135;28;20051;-79
2023/06/13 09:46:19;;;;;;;9.90;6.40;;;;;;;;;;4957628;29;20043;-77
2023/06/13 09:49:06;;;;;;;10.63;6.30;;;;;;;;;;4958027;29;20513;-78
2023/06/13 09:51:52;;;;;;;10.00;6.50;;;;;;;;;;4957665;29;20035;-78
2023/06/13 09:54:42;;;;;;;9.13;5.80;;;;;;;;;;4957014;29;20047;-78
2023/06/13 09:57:28;;;;;;;11.40;5.78;;;;;;;;;;4956586;29;20074;-77
2023/06/13 10:00:14;;;;;;;7.13;5.72;;;;;;;;;;4958211;29;20044;-78
2023/06/13 10:03:01;;;;;;;9.40;5.50;;;;;;;;;;4957505;29;20051;-78
2023/06/13 10:05:46;;;;;;;12.32;5.55;;;;;;;;;;4956831;29;20055;-78
2023/06/13 10:08:33;;;;;;;9.45;5.30;;;;;;;;;;4957285;29;20397;-78
2023/06/13 10:11:26;;;;;;;8.77;5.82;;;;;;;;;;4957535;29;20051;-77
2023/06/13 10:14:16;;;;;;;8.02;4.93;;;;;;;;;;4957397;29;20043;-79
2023/06/13 10:17:08;;;;;;;9.05;4.70;;;;;;;;;;4956686;29;20040;-76
2023/06/13 10:20:00;;;;;;;13.95;5.35;;;;;;;;;;4956727;29;20047;-76
2023/06/13 10:22:47;;;;;;;5.97;4.68;;;;;;;;;;4956980;29;20086;-77
2023/06/13 10:25:34;;;;;;;9.10;4.25;;;;;;;;;;4956665;29;20047;-79
2023/06/13 10:28:29;;;;;;;5.90;4.80;;;;;;;;;;4956653;29;20047;-80
2023/06/13 10:31:53;;;;;;;8.63;4.75;;;;;;;;;;4957412;29;20406;-80
2023/06/13 10:34:44;;;;;;;6.25;3.97;;;;;;;;;;4956574;29;20055;-79
2023/06/13 10:37:38;;;;;;;11.00;5.30;;;;;;;;;;4956991;29;20051;-79
2023/06/13 10:40:37;;;;;;;;;;;;;;;;;;4957875;29;20040;-79
2023/06/13 10:43:53;;;;;;;9.10;4.93;;;;;;;;;;4956501;29;20352;-79
2023/06/13 10:46:40;;;;;;;7.93;4.93;;;;;;;;;;4956443;29;20059;-78
2023/06/13 10:49:38;;;;;;;9.45;4.80;;;;;;;;;;4941802;29;20055;-81
2023/06/13 10:52:24;;;;;;;13.13;5.00;;;;;;;;;;4956812;29;20047;-79
2023/06/13 10:55:21;;;;;;;5.43;4.63;;;;;;;;;;4954898;28;20051;-80
2023/06/13 10:58:13;;;;;;;7.75;4.40;;;;;;;;;;4955896;29;20043;-78
2023/06/13 11:01:24;;;;;;;11.10;4.40;;;;;;;;;;4956256;29;20048;-81
2023/06/13 11:04:13;;;;;;;6.38;4.47;;;;;;;;;;4928826;29;20039;-80
2023/06/13 11:07:21;;;;;;;9.88;4.95;;;;;;;;;;4941740;29;20469;-80
2023/06/13 11:10:08;;;;;;;7.63;4.60;;;;;;;;;;4955687;29;20047;-80
2023/06/13 11:12:53;;;;;;;7.93;4.60;;;;;;;;;;4955740;29;20055;-79
2023/06/13 11:15:40;;;;;;;5.30;4.80;;;;;;;;;;4955987;29;20494;-79
2023/06/13 11:18:28;;;;;;;6.10;4.63;;;;;;;;;;4955642;29;20390;-77
2023/06/13 11:21:14;;;;;;;10.60;8.18;;;;;;;;;;4956922;29;20058;-87
2023/06/13 11:23:59;;;;;;;5.45;4.90;;;;;;;;;;4955003;29;20135;-80
2023/06/13 11:26:45;;;;;;;9.00;5.50;;;;;;;;;;4955417;29;20047;-82
2023/06/13 11:29:32;;;;;;;8.95;4.63;;;;;;;;;;4955588;29;20055;-81
2023/06/13 11:32:19;;;;;;;9.23;4.28;;;;;;;;;;4955421;29;20051;-85
2023/06/13 11:35:08;;;;;;;8.65;5.95;;;;;;;;;;4956502;29;20047;-86
2023/06/13 11:38:00;;;;;;;5.40;4.20;;;;;;;;;;4941601;29;20394;-82
2023/06/13 11:40:51;;;;;;;6.28;4.07;;;;;;;;;;4947655;28;20047;-82
2023/06/13 11:43:40;;;;;;;;;;;;;;;;;;4955755;29;20043;-83
2023/06/13 11:46:25;;;;;;;7.03;4.70;;;;;;;;;;4959692;29;19919;-83
2023/06/13 11:49:16;;;;;;;5.70;4.35;;;;;;;;;;4955721;29;20409;-82
2023/06/13 11:52:17;;;;;;;5.97;4.28;;;;;;;;;;4955444;29;20055;-81
2023/06/13 11:55:17;;;;;;;6.03;4.03;;;;;;;;;;4955347;29;20039;-83
2023/06/13 11:58:03;;;;;;;6.70;4.28;;;;;;;;;;4957498;29;20043;-81
2023/06/13 12:00:56;;;;;;;7.82;5.05;;;;;;;;;;4955016;29;20051;-83
2023/06/13 12:03:44;;;;;;;16.00;5.38;;;;;;;;;;4955229;29;20051;-80
2023/06/13 12:06:29;;;;;;;7.10;4.88;;;;;;;;;;4956280;28;20047;-84
2023/06/13 12:09:15;;;;;;;6.45;4.85;;;;;;;;;;4946151;29;20051;-85
2023/06/13 12:12:02;;;;;;;8.60;4.60;;;;;;;;;;4961240;29;20047;-84
2023/06/13 12:14:54;;;;;;;5.57;4.32;;;;;;;;;;4951384;28;20047;-83
2023/06/13 12:18:02;;;;;;;5.03;4.53;;;;;;;;;;4959576;29;20043;-86
2023/06/13 12:20:50;;;;;;;13.98;7.35;;;;;;;;;;4944017;29;20043;-82
2023/06/13 12:23:37;;;;;;;6.47;4.90;;;;;;;;;;4958311;29;20055;-81
2023/06/13 12:26:30;;;;;;;8.48;5.18;;;;;;;;;;4958893;29;20047;-82
2023/06/13 12:29:16;;;;;;;6.63;4.95;;;;;;;;;;4958500;29;20047;-81
2023/06/13 12:32:06;;;;;;;7.13;4.45;;;;;;;;;;4944633;29;20043;-82
2023/06/13 12:34:52;;;;;;;4.53;3.17;;;;;;;;;;4958762;29;20047;-84
2023/06/13 12:37:38;;;;;;;3.97;3.10;;;;;;;;;;4959202;29;20043;-82
2023/06/13 12:40:33;;;;;;;5.32;3.50;;;;;;;;;;4958797;29;20055;-83
2023/06/13 12:43:29;;;;;;;4.47;3.38;;;;;;;;;;4958083;29;20422;-83
2023/06/13 12:46:14;;;;;;;4.40;3.25;;;;;;;;;;4957989;29;20062;-83
2023/06/13 12:49:00;;;;;;;4.20;3.38;;;;;;;;;;4957879;29;20035;-83
2023/06/13 12:51:52;;;;;;;6.43;3.60;;;;;;;;;;4958380;29;20355;-83
2023/06/13 12:54:36;;;;;;;4.32;3.70;;;;;;;;;;4943465;29;20051;-83
2023/06/13 12:57:22;;;;;;;4.43;3.33;;;;;;;;;;4943310;29;20047;-83
2023/06/13 13:00:10;;;;;;;6.93;3.90;;;;;;;;;;4958105;29;20405;-83
2023/06/13 13:02:56;;;;;;;5.57;3.78;;;;;;;;;;4943255;29;20055;-81
2023/06/13 13:05:41;;;;;;;5.13;3.85;;;;;;;;;;4943622;29;20047;-82
2023/06/13 13:08:28;;;;;;;4.53;4.10;;;;;;;;;;4958013;29;20055;-82
2023/06/13 13:11:13;;;;;;;8.45;3.97;;;;;;;;;;4957633;29;20039;-82
2023/06/13 13:13:59;;;;;;;5.57;4.22;;;;;;;;;;4958065;29;20047;-82
2023/06/13 13:16:45;;;;;;;5.68;4.40;;;;;;;;;;4957992;29;20035;-82
2023/06/13 13:19:31;;;;;;;6.20;4.43;;;;;;;;;;4957284;28;20051;-83
2023/06/13 13:22:17;;;;;;;5.13;4.22;;;;;;;;;;4957532;29;20055;-83
2023/06/13 13:25:02;;;;;;;5.75;4.40;;;;;;;;;;4957513;29;20051;-83
2023/06/13 13:27:48;;;;;;;5.40;4.10;;;;;;;;;;4957599;29;20055;-83
2023/06/13 13:30:34;;;;;;;5.18;4.20;;;;;;;;;;4957245;29;20043;-83
2023/06/13 13:33:23;;;;;;;6.05;3.90;;;;;;;;;;4957640;29;20047;-82
2023/06/13 13:36:08;;;;;;;6.00;3.88;;;;;;;;;;4957508;29;20039;-82
2023/06/13 13:38:54;;;;;;;6.45;3.95;;;;;;;;;;4957529;29;20052;-82
2023/06/13 13:41:40;;;;;;;8.85;4.20;;;;;;;;;;4957791;29;20043;-83
2023/06/13 13:44:26;;;;;;;7.00;3.75;;;;;;;;;;4956930;29;20047;-83
2023/06/13 13:47:12;;;;;;;7.38;4.00;;;;;;;;;;4957012;29;20047;-83
2023/06/13 13:49:57;;;;;;;8.18;4.00;;;;;;;;;;4957385;29;20043;-83
2023/06/13 13:52:43;;;;;;;5.43;4.03;;;;;;;;;;4942998;29;20047;-83
2023/06/13 13:55:28;;;;;;;8.13;4.13;;;;;;;;;;4948927;28;20043;-82
2023/06/13 13:58:16;;;;;;;5.97;4.00;;;;;;;;;;4956558;29;20043;-81
2023/06/13 14:01:02;;;;;;;5.88;4.00;;;;;;;;;;4957427;29;20047;-83
2023/06/13 14:03:48;;;;;;;5.22;3.88;;;;;;;;;;4957484;29;20401;-82
2023/06/13 14:06:34;;;;;;;4.82;4.18;;;;;;;;;;4948988;28;20048;-82
2023/06/13 14:09:20;;;;;;;5.25;4.00;;;;;;;;;;4956797;29;20039;-82
2023/06/13 14:12:06;;;;;;;4.72;4.00;;;;;;;;;;4956735;29;20047;-82
2023/06/13 14:14:52;;;;;;;4.68;3.80;;;;;;;;;;4956307;29;20453;-83
2023/06/13 14:17:38;;;;;;;4.55;4.00;;;;;;;;;;4956659;29;20036;-83
2023/06/13 14:20:24;;;;;;;5.50;4.15;;;;;;;;;;4942697;29;20044;-83
2023/06/13 14:23:16;;;;;;;7.57;4.07;;;;;;;;;;4956668;29;20055;-82
2023/06/13 14:26:01;;;;;;;8.27;4.70;;;;;;;;;;4948226;28;20043;-82
2023/06/13 14:28:50;;;;;;;5.00;3.92;;;;;;;;;;4956574;29;20055;-82
2023/06/13 14:31:35;;;;;;;6.20;4.25;;;;;;;;;;4955293;29;20048;-82
2023/06/13 14:34:21;;;;;;;5.80;4.07;;;;;;;;;;4956447;29;20047;-82
2023/06/13 14:37:06;;;;;;;6.60;4.38;;;;;;;;;;4956290;29;20047;-82
2023/06/13 14:39:51;;;;;;;4.68;3.65;;;;;;;;;;4956219;29;20047;-84
2023/06/13 14:42:37;;;;;;;7.65;3.70;;;;;;;;;;4941558;29;20489;-86
2023/06/13 14:45:22;;;;;;;4.75;3.53;;;;;;;;;;4956279;29;20054;-83
2023/06/13 14:48:07;;;;;;;4.32;3.58;;;;;;;;;;4940824;29;20498;-83
2023/06/13 14:50:53;;;;;;;4.90;3.70;;;;;;;;;;4955284;29;20047;-83
2023/06/13 14:53:39;;;;;;;5.93;2.60;;;;;;;;;;4948257;28;20485;-84
2023/06/13 14:56:25;;;;;;;4.65;2.80;;;;;;;;;;4941388;29;20051;-84
2023/06/13 14:59:10;;;;;;;4.95;2.47;;;;;;;;;;4956006;29;20048;-83
2023/06/13 15:01:56;;;;;;;6.43;2.50;;;;;;;;;;4955463;29;20051;-83
2023/06/13 15:04:41;;;;;;;8.13;2.40;;;;;;;;;;4941906;29;20043;-84
2023/06/13 15:07:27;;;;;;;3.83;2.30;;;;;;;;;;4956556;29;20047;-84
2023/06/13 15:10:13;;;;;;;7.88;2.17;;;;;;;;;;4956106;29;20051;-86
2023/06/13 15:12:58;;;;;;;7.78;2.05;;;;;;;;;;4947695;28;20485;-84
2023/06/13 15:15:55;;;;;;;4.72;2.60;;;;;;;;;;4955677;29;20055;-83
2023/06/13 15:18:41;;;;;;;6.72;2.67;;;;;;;;;;4955900;29;20051;-78
2023/06/13 15:21:27;;;;;;;4.10;2.22;;;;;;;;;;4940423;29;20047;-77
2023/06/13 15:24:12;;;;;;;4.97;2.10;;;;;;;;;;4955604;29;20390;-78
2023/06/13 15:26:58;;;;;;;7.28;2.08;;;;;;;;;;4954396;29;20406;-79
2023/06/13 15:29:45;;;;;;;4.38;2.20;;;;;;;;;;4955617;29;20047;-79
2023/06/13 15:32:38;;;;;;;5.22;2.40;;;;;;;;;;4954510;29;20039;-78
2023/06/13 15:35:34;;;;;;;6.15;2.40;;;;;;;;;;4933409;29;20370;-80
2023/06/13 15:38:31;;;;;;;3.97;2.42;;;;;;;;;;4934133;29;20091;-77
2023/06/13 15:41:28;;;;;;;5.68;2.22;;;;;;;;;;4933697;29;20047;-78
2023/06/13 15:44:20;;;;;;;4.53;2.40;;;;;;;;;;4921360;29;20059;-78
2023/06/13 15:47:08;;;;;;;3.83;2.30;;;;;;;;;;4935411;29;20052;-79
2023/06/13 15:49:58;;;;;;;4.80;2.30;;;;;;;;;;4935382;29;20110;-79
2023/06/13 15:52:45;;;;;;;3.70;2.30;;;;;;;;;;4935643;29;20051;-86
2023/06/13 15:55:31;;;;;;;5.38;2.60;;;;;;;;;;4935746;29;20420;-83
2023/06/13 15:58:16;;;;;;;3.35;2.30;;;;;;;;;;4935963;29;20489;-83
2023/06/13 16:01:05;;;;;;;5.43;2.50;;;;;;;;;;4921423;29;20051;-82
2023/06/13 16:04:15;;;;;;;4.60;2.00;;;;;;;;;;4935649;29;20390;-86
2023/06/13 16:07:01;;;;;;;6.55;2.45;;;;;;;;;;4935969;29;20039;-83
2023/06/13 16:09:48;;;;;;;4.43;2.20;;;;;;;;;;4921865;29;20044;-82
2023/06/13 16:12:33;;;;;;;4.03;2.30;;;;;;;;;;4935792;29;20044;-80
2023/06/13 16:15:19;;;;;;;5.28;2.80;;;;;;;;;;4935872;29;20051;-80
2023/06/13 16:18:04;;;;;;;5.82;2.90;;;;;;;;;;4935173;29;20044;-82
2023/06/13 16:20:50;;;;;;;3.55;2.10;;;;;;;;;;4936283;29;20051;-81
2023/06/13 16:23:36;;;;;;;4.32;2.97;;;;;;;;;;4936162;29;20482;-81
2023/06/13 16:26:21;;;;;;;5.05;2.83;;;;;;;;;;4934549;29;20040;-81
2023/06/13 16:29:07;;;;;;;5.97;3.00;;;;;;;;;;4935899;29;20404;-81
2023/06/13 16:31:52;;;;;;;8.07;3.20;;;;;;;;;;4922333;29;20057;-81
2023/06/13 16:34:38;;;;;;;7.53;3.63;;;;;;;;;;4936526;29;20048;-82
2023/06/13 16:37:26;;;;;;;8.68;3.45;;;;;;;;;;4935611;29;20039;-81
2023/06/13 16:40:18;;;;;;;8.18;3.25;;;;;;;;;;4935660;29;20055;-83
2023/06/13 16:43:04;;;;;;;9.63;2.92;;;;;;;;;;4908853;29;20056;-85
2023/06/13 16:45:51;;;;;;;6.63;2.90;;;;;;;;;;4926491;29;20486;-82
2023/06/13 16:48:40;;;;;;;4.55;2.70;;;;;;;;;;4937476;29;20044;-84
2023/06/13 16:51:33;;;;;;;5.00;2.70;;;;;;;;;;4937536;29;20509;-84
2023/06/13 16:54:28;;;;;;;7.95;2.97;;;;;;;;;;4938776;29;20051;-83
2023/06/13 16:57:21;;;;;;;4.85;2.95;;;;;;;;;;4924418;29;20055;-86